sensor_id;sensor_type;location;lat;lon;timestamp;pressure;altitude;pressure_sealevel;temperature;humidity
60240;BME280;46102;39.012;-7.064;2023-04-15T00:01:45;99006.94;;;14.02;75.39
60240;BME280;46102;39.012;-7.064;2023-04-15T00:03:45;99005.63;;;14.00;75.79
60240;BME280;46102;39.012;-7.064;2023-04-15T00:05:46;99007.78;;;13.94;76.36
60240;BME280;46102;39.012;-7.064;2023-04-15T00:07:47;99003.56;;;13.97;76.32
60240;BME280;46102;39.012;-7.064;2023-04-15T00:09:48;98996.25;;;13.92;76.57
60240;BME280;46102;39.012;-7.064;2023-04-15T00:11:49;99001.28;;;13.90;76.85
60240;BME280;46102;39.012;-7.064;2023-04-15T00:13:50;98998.06;;;13.88;77.13
60240;BME280;46102;39.012;-7.064;2023-04-15T00:15:51;98999.69;;;13.80;78.10
60240;BME280;46102;39.012;-7.064;2023-04-15T00:17:52;99014.78;;;13.74;78.36
60240;BME280;46102;39.012;-7.064;2023-04-15T00:19:52;99019.03;;;13.71;78.61
60240;BME280;46102;39.012;-7.064;2023-04-15T00:21:53;99017.56;;;13.74;78.87
60240;BME280;46102;39.012;-7.064;2023-04-15T00:23:54;99026.31;;;13.76;78.70
60240;BME280;46102;39.012;-7.064;2023-04-15T00:25:56;99019.31;;;13.79;78.86
60240;BME280;46102;39.012;-7.064;2023-04-15T00:27:56;99019.97;;;13.75;78.92
60240;BME280;46102;39.012;-7.064;2023-04-15T00:29:57;99025.16;;;13.77;78.57
60240;BME280;46102;39.012;-7.064;2023-04-15T00:31:58;99023.88;;;13.74;78.91
60240;BME280;46102;39.012;-7.064;2023-04-15T00:33:59;99031.03;;;13.67;79.44
60240;BME280;46102;39.012;-7.064;2023-04-15T00:35:59;99025.50;;;13.67;79.81
60240;BME280;46102;39.012;-7.064;2023-04-15T00:38:01;99023.38;;;13.72;79.83
60240;BME280;46102;39.012;-7.064;2023-04-15T00:40:01;99017.56;;;13.65;80.15
60240;BME280;46102;39.012;-7.064;2023-04-15T00:42:05;99030.69;;;13.68;80.10
60240;BME280;46102;39.012;-7.064;2023-04-15T00:44:06;99020.97;;;13.62;80.88
60240;BME280;46102;39.012;-7.064;2023-04-15T00:46:08;99014.97;;;13.60;80.71
60240;BME280;46102;39.012;-7.064;2023-04-15T00:48:10;99008.31;;;13.52;81.34
60240;BME280;46102;39.012;-7.064;2023-04-15T00:50:11;98999.41;;;13.56;81.35
60240;BME280;46102;39.012;-7.064;2023-04-15T00:52:12;98994.88;;;13.51;81.73
60240;BME280;46102;39.012;-7.064;2023-04-15T00:54:13;99004.75;;;13.43;82.13
60240;BME280;46102;39.012;-7.064;2023-04-15T00:56:15;99011.06;;;13.44;82.21
60240;BME280;46102;39.012;-7.064;2023-04-15T00:58:16;99013.34;;;13.42;82.31
60240;BME280;46102;39.012;-7.064;2023-04-15T01:00:17;99013.34;;;13.42;82.46
60240;BME280;46102;39.012;-7.064;2023-04-15T01:02:20;99020.50;;;13.51;82.72
60240;BME280;46102;39.012;-7.064;2023-04-15T01:04:21;99009.28;;;13.48;82.90
60240;BME280;46102;39.012;-7.064;2023-04-15T01:06:23;99017.75;;;13.43;82.93
60240;BME280;46102;39.012;-7.064;2023-04-15T01:08:27;99011.91;;;13.44;83.29
60240;BME280;46102;39.012;-7.064;2023-04-15T01:10:28;99016.59;;;13.44;83.42
60240;BME280;46102;39.012;-7.064;2023-04-15T01:12:31;99008.81;;;13.46;83.10
60240;BME280;46102;39.012;-7.064;2023-04-15T01:14:32;99009.47;;;13.51;83.18
60240;BME280;46102;39.012;-7.064;2023-04-15T01:16:33;99009.78;;;13.50;83.52
60240;BME280;46102;39.012;-7.064;2023-04-15T01:18:36;98999.75;;;13.45;83.46
60240;BME280;46102;39.012;-7.064;2023-04-15T01:20:39;99005.06;;;13.42;83.79
60240;BME280;46102;39.012;-7.064;2023-04-15T01:22:40;99000.53;;;13.37;83.77
60240;BME280;46102;39.012;-7.064;2023-04-15T01:24:46;98991.97;;;13.39;83.68
60240;BME280;46102;39.012;-7.064;2023-04-15T01:26:52;98991.66;;;13.40;83.35
60240;BME280;46102;39.012;-7.064;2023-04-15T01:28:53;98995.03;;;13.46;83.18
60240;BME280;46102;39.012;-7.064;2023-04-15T01:31:11;98991.28;;;13.42;83.27
60240;BME280;46102;39.012;-7.064;2023-04-15T01:33:13;98983.38;;;13.40;83.17
60240;BME280;46102;39.012;-7.064;2023-04-15T01:35:13;98980.94;;;13.39;83.50
60240;BME280;46102;39.012;-7.064;2023-04-15T01:37:14;98985.34;;;13.40;83.49
60240;BME280;46102;39.012;-7.064;2023-04-15T01:39:17;98983.88;;;13.33;83.60
60240;BME280;46102;39.012;-7.064;2023-04-15T01:41:26;98982.88;;;13.29;84.00
60240;BME280;46102;39.012;-7.064;2023-04-15T01:43:26;98988.41;;;13.29;83.85
60240;BME280;46102;39.012;-7.064;2023-04-15T01:45:27;98989.34;;;13.25;84.35
60240;BME280;46102;39.012;-7.064;2023-04-15T01:47:28;98987.56;;;13.20;84.77
60240;BME280;46102;39.012;-7.064;2023-04-15T01:49:29;98979.63;;;13.19;85.08
60240;BME280;46102;39.012;-7.064;2023-04-15T01:51:30;98987.72;;;13.24;85.16
60240;BME280;46102;39.012;-7.064;2023-04-15T01:55:32;98981.72;;;13.13;86.01
60240;BME280;46102;39.012;-7.064;2023-04-15T01:57:33;98976.38;;;13.17;86.61
60240;BME280;46102;39.012;-7.064;2023-04-15T01:59:34;98976.84;;;13.19;86.62
60240;BME280;46102;39.012;-7.064;2023-04-15T02:01:35;98978.16;;;13.12;86.57
60240;BME280;46102;39.012;-7.064;2023-04-15T02:03:36;98971.69;;;13.08;87.49
60240;BME280;46102;39.012;-7.064;2023-04-15T02:05:38;98976.22;;;13.13;87.54
60240;BME280;46102;39.012;-7.064;2023-04-15T02:07:39;98971.19;;;13.15;87.46
60240;BME280;46102;39.012;-7.064;2023-04-15T02:09:40;98979.13;;;13.08;88.17
60240;BME280;46102;39.012;-7.064;2023-04-15T02:11:42;98982.34;;;13.01;88.55
60240;BME280;46102;39.012;-7.064;2023-04-15T02:13:43;98980.75;;;13.00;89.02
60240;BME280;46102;39.012;-7.064;2023-04-15T02:15:49;98977.34;;;13.03;88.49
60240;BME280;46102;39.012;-7.064;2023-04-15T02:17:53;98979.28;;;13.03;88.83
60240;BME280;46102;39.012;-7.064;2023-04-15T02:19:55;98976.22;;;13.04;88.48
60240;BME280;46102;39.012;-7.064;2023-04-15T02:21:56;98969.91;;;12.95;89.07
60240;BME280;46102;39.012;-7.064;2023-04-15T02:23:57;98979.13;;;12.90;89.28
60240;BME280;46102;39.012;-7.064;2023-04-15T02:25:57;98981.22;;;12.94;89.92
60240;BME280;46102;39.012;-7.064;2023-04-15T02:27:59;98972.31;;;12.88;89.94
60240;BME280;46102;39.012;-7.064;2023-04-15T02:30:00;98977.66;;;12.84;90.36
60240;BME280;46102;39.012;-7.064;2023-04-15T02:32:01;98974.59;;;12.86;90.34
60240;BME280;46102;39.012;-7.064;2023-04-15T02:34:02;98984.44;;;12.87;90.12
60240;BME280;46102;39.012;-7.064;2023-04-15T02:36:05;98981.03;;;12.90;90.34
60240;BME280;46102;39.012;-7.064;2023-04-15T02:38:07;98986.91;;;12.88;90.40
60240;BME280;46102;39.012;-7.064;2023-04-15T02:40:09;98978.94;;;12.87;90.47
60240;BME280;46102;39.012;-7.064;2023-04-15T02:42:13;98979.25;;;12.85;90.73
60240;BME280;46102;39.012;-7.064;2023-04-15T02:44:13;98976.19;;;12.87;90.88
60240;BME280;46102;39.012;-7.064;2023-04-15T02:46:14;98978.13;;;12.78;91.63
60240;BME280;46102;39.012;-7.064;2023-04-15T02:48:16;98976.66;;;12.80;91.69
60240;BME280;46102;39.012;-7.064;2023-04-15T02:50:19;98971.16;;;12.80;91.90
60240;BME280;46102;39.012;-7.064;2023-04-15T02:52:20;98977.34;;;12.86;92.17
60240;BME280;46102;39.012;-7.064;2023-04-15T02:54:22;98976.00;;;12.83;92.19
60240;BME280;46102;39.012;-7.064;2023-04-15T02:56:23;98976.50;;;12.85;92.55
60240;BME280;46102;39.012;-7.064;2023-04-15T02:58:24;98980.09;;;12.86;92.70
60240;BME280;46102;39.012;-7.064;2023-04-15T03:00:26;98977.34;;;12.86;92.34
60240;BME280;46102;39.012;-7.064;2023-04-15T03:02:32;98977.34;;;12.86;92.54
60240;BME280;46102;39.012;-7.064;2023-04-15T03:04:34;98973.75;;;12.85;92.83
60240;BME280;46102;39.012;-7.064;2023-04-15T03:06:35;98970.03;;;12.81;92.60
60240;BME280;46102;39.012;-7.064;2023-04-15T03:08:36;98973.91;;;12.80;93.15
60240;BME280;46102;39.012;-7.064;2023-04-15T03:10:37;98971.84;;;12.86;92.83
60240;BME280;46102;39.012;-7.064;2023-04-15T03:12:38;98967.44;;;12.85;93.00
60240;BME280;46102;39.012;-7.064;2023-04-15T03:14:41;98959.97;;;12.85;93.13
60240;BME280;46102;39.012;-7.064;2023-04-15T03:16:42;98959.50;;;12.83;92.94
60240;BME280;46102;39.012;-7.064;2023-04-15T03:18:43;98961.78;;;12.81;93.42
60240;BME280;46102;39.012;-7.064;2023-04-15T03:20:43;98957.09;;;12.82;93.06
60240;BME280;46102;39.012;-7.064;2023-04-15T03:22:44;98947.03;;;12.77;93.38
60240;BME280;46102;39.012;-7.064;2023-04-15T03:24:45;98950.59;;;12.78;93.15
60240;BME280;46102;39.012;-7.064;2023-04-15T03:26:46;98948.50;;;12.75;92.99
60240;BME280;46102;39.012;-7.064;2023-04-15T03:28:50;98951.75;;;12.77;93.10
60240;BME280;46102;39.012;-7.064;2023-04-15T03:30:51;98947.66;;;12.74;93.45
60240;BME280;46102;39.012;-7.064;2023-04-15T03:32:52;98941.19;;;12.79;93.08
60240;BME280;46102;39.012;-7.064;2023-04-15T03:34:53;98946.72;;;12.70;93.87
60240;BME280;46102;39.012;-7.064;2023-04-15T03:36:55;98940.72;;;12.68;94.04
60240;BME280;46102;39.012;-7.064;2023-04-15T03:38:55;98948.63;;;12.69;93.70
60240;BME280;46102;39.012;-7.064;2023-04-15T03:40:57;98953.19;;;12.65;93.94
60240;BME280;46102;39.012;-7.064;2023-04-15T03:42:58;98948.47;;;12.66;93.99
60240;BME280;46102;39.012;-7.064;2023-04-15T03:44:59;98957.69;;;12.61;94.02
60240;BME280;46102;39.012;-7.064;2023-04-15T03:47:00;98950.88;;;12.67;93.85
60240;BME280;46102;39.012;-7.064;2023-04-15T03:49:01;98945.06;;;12.69;93.84
60240;BME280;46102;39.012;-7.064;2023-04-15T03:51:01;98944.59;;;12.67;93.84
60240;BME280;46102;39.012;-7.064;2023-04-15T03:53:02;98941.34;;;12.65;94.09
60240;BME280;46102;39.012;-7.064;2023-04-15T03:55:03;98942.16;;;12.65;93.91
60240;BME280;46102;39.012;-7.064;2023-04-15T03:57:04;98940.69;;;12.59;94.16
60240;BME280;46102;39.012;-7.064;2023-04-15T03:59:05;98941.00;;;12.58;94.76
60240;BME280;46102;39.012;-7.064;2023-04-15T04:01:06;98949.59;;;12.65;94.70
60240;BME280;46102;39.012;-7.064;2023-04-15T04:03:07;98944.75;;;12.62;94.47
60240;BME280;46102;39.012;-7.064;2023-04-15T04:05:08;98949.28;;;12.66;94.33
60240;BME280;46102;39.012;-7.064;2023-04-15T04:07:14;98949.28;;;12.66;93.66
60240;BME280;46102;39.012;-7.064;2023-04-15T04:09:16;98949.94;;;12.63;94.06
60240;BME280;46102;39.012;-7.064;2023-04-15T04:11:16;98943.44;;;12.59;94.11
60240;BME280;46102;39.012;-7.064;2023-04-15T04:13:17;98942.47;;;12.55;94.67
60240;BME280;46102;39.012;-7.064;2023-04-15T04:15:18;98944.72;;;12.53;94.69
60240;BME280;46102;39.012;-7.064;2023-04-15T04:17:19;98952.47;;;12.51;95.42
60240;BME280;46102;39.012;-7.064;2023-04-15T04:19:19;98957.84;;;12.47;95.42
60240;BME280;46102;39.012;-7.064;2023-04-15T04:21:20;98964.16;;;12.48;95.55
60240;BME280;46102;39.012;-7.064;2023-04-15T04:23:21;98970.44;;;12.48;95.25
60240;BME280;46102;39.012;-7.064;2023-04-15T04:25:22;98974.00;;;12.49;95.16
60240;BME280;46102;39.012;-7.064;2023-04-15T04:27:24;98966.09;;;12.56;95.29
60240;BME280;46102;39.012;-7.064;2023-04-15T04:29:25;98962.03;;;12.54;95.36
60240;BME280;46102;39.012;-7.064;2023-04-15T04:31:26;98963.81;;;12.58;95.65
60240;BME280;46102;39.012;-7.064;2023-04-15T04:33:27;98969.00;;;12.51;95.89
60240;BME280;46102;39.012;-7.064;2023-04-15T04:35:28;98972.91;;;12.50;95.36
60240;BME280;46102;39.012;-7.064;2023-04-15T04:37:29;98972.56;;;12.52;95.84
60240;BME280;46102;39.012;-7.064;2023-04-15T04:39:29;98978.41;;;12.50;95.79
60240;BME280;46102;39.012;-7.064;2023-04-15T04:41:30;98977.25;;;12.51;95.23
60240;BME280;46102;39.012;-7.064;2023-04-15T04:43:31;98971.72;;;12.42;95.83
60240;BME280;46102;39.012;-7.064;2023-04-15T04:45:32;98970.28;;;12.45;95.56
60240;BME280;46102;39.012;-7.064;2023-04-15T04:47:33;98972.69;;;12.38;95.99
60240;BME280;46102;39.012;-7.064;2023-04-15T04:49:34;98976.41;;;12.42;96.01
60240;BME280;46102;39.012;-7.064;2023-04-15T04:51:35;98968.16;;;12.42;96.00
60240;BME280;46102;39.012;-7.064;2023-04-15T04:53:36;98964.16;;;12.48;95.64
60240;BME280;46102;39.012;-7.064;2023-04-15T04:55:37;98968.81;;;12.39;96.12
60240;BME280;46102;39.012;-7.064;2023-04-15T04:57:37;98967.84;;;12.43;96.01
60240;BME280;46102;39.012;-7.064;2023-04-15T04:59:41;98961.38;;;12.39;96.30
60240;BME280;46102;39.012;-7.064;2023-04-15T05:01:42;98965.06;;;12.35;96.62
60240;BME280;46102;39.012;-7.064;2023-04-15T05:03:43;98960.38;;;12.35;96.86
60240;BME280;46102;39.012;-7.064;2023-04-15T05:05:44;98965.22;;;12.38;96.74
60240;BME280;46102;39.012;-7.064;2023-04-15T05:07:45;98974.63;;;12.37;96.34
60240;BME280;46102;39.012;-7.064;2023-04-15T05:09:46;98962.97;;;12.40;96.84
60240;BME280;46102;39.012;-7.064;2023-04-15T05:11:47;98971.84;;;12.28;96.78
60240;BME280;46102;39.012;-7.064;2023-04-15T05:13:48;98966.66;;;12.27;97.25
60240;BME280;46102;39.012;-7.064;2023-04-15T05:15:49;98965.22;;;12.29;96.89
60240;BME280;46102;39.012;-7.064;2023-04-15T05:17:49;98966.34;;;12.28;96.94
60240;BME280;46102;39.012;-7.064;2023-04-15T05:19:50;98962.47;;;12.29;97.08
60240;BME280;46102;39.012;-7.064;2023-04-15T05:21:53;98956.00;;;12.34;96.92
60240;BME280;46102;39.012;-7.064;2023-04-15T05:23:53;98956.50;;;12.36;96.85
60240;BME280;46102;39.012;-7.064;2023-04-15T05:25:54;98963.44;;;12.34;96.71
60240;BME280;46102;39.012;-7.064;2023-04-15T05:27:55;98954.03;;;12.26;97.04
60240;BME280;46102;39.012;-7.064;2023-04-15T05:29:56;98960.69;;;12.25;97.12
60240;BME280;46102;39.012;-7.064;2023-04-15T05:31:57;98960.69;;;12.25;97.15
60240;BME280;46102;39.012;-7.064;2023-04-15T05:33:57;98959.84;;;12.24;97.26
60240;BME280;46102;39.012;-7.064;2023-04-15T05:35:58;98967.09;;;12.20;97.51
60240;BME280;46102;39.012;-7.064;2023-04-15T05:37:59;98969.75;;;12.25;97.69
60240;BME280;46102;39.012;-7.064;2023-04-15T05:40:00;98972.94;;;12.19;97.82
60240;BME280;46102;39.012;-7.064;2023-04-15T05:42:00;98967.59;;;12.14;98.39
60240;BME280;46102;39.012;-7.064;2023-04-15T05:44:01;98970.00;;;12.15;98.20
60240;BME280;46102;39.012;-7.064;2023-04-15T05:46:02;98973.72;;;12.11;98.68
60240;BME280;46102;39.012;-7.064;2023-04-15T05:48:03;98978.41;;;12.10;98.62
60240;BME280;46102;39.012;-7.064;2023-04-15T05:50:04;98970.66;;;12.12;98.77
60240;BME280;46102;39.012;-7.064;2023-04-15T05:52:05;98976.47;;;12.11;98.78
60240;BME280;46102;39.012;-7.064;2023-04-15T05:54:05;98974.50;;;12.11;98.39
60240;BME280;46102;39.012;-7.064;2023-04-15T05:56:06;98975.69;;;12.19;97.93
60240;BME280;46102;39.012;-7.064;2023-04-15T05:58:07;98980.69;;;12.17;97.95
60240;BME280;46102;39.012;-7.064;2023-04-15T06:00:08;98978.44;;;12.19;97.86
60240;BME280;46102;39.012;-7.064;2023-04-15T06:02:12;98980.00;;;12.11;97.95
60240;BME280;46102;39.012;-7.064;2023-04-15T06:04:13;98980.34;;;12.10;97.78
60240;BME280;46102;39.012;-7.064;2023-04-15T06:06:14;98986.84;;;12.14;97.96
60240;BME280;46102;39.012;-7.064;2023-04-15T06:08:15;98985.41;;;12.16;97.56
60240;BME280;46102;39.012;-7.064;2023-04-15T06:10:15;98985.91;;;12.18;97.21
60240;BME280;46102;39.012;-7.064;2023-04-15T06:12:16;98981.19;;;12.19;96.90
60240;BME280;46102;39.012;-7.064;2023-04-15T06:14:17;98983.00;;;12.23;96.82
60240;BME280;46102;39.012;-7.064;2023-04-15T06:16:18;98993.84;;;12.28;96.10
60240;BME280;46102;39.012;-7.064;2023-04-15T06:18:18;98999.19;;;12.34;96.07
60240;BME280;46102;39.012;-7.064;2023-04-15T06:20:19;98998.25;;;12.38;95.41
60240;BME280;46102;39.012;-7.064;2023-04-15T06:22:23;99000.06;;;12.43;94.83
60240;BME280;46102;39.012;-7.064;2023-04-15T06:24:24;99000.53;;;12.45;94.75
60240;BME280;46102;39.012;-7.064;2023-04-15T06:26:25;99004.91;;;12.46;94.24
60240;BME280;46102;39.012;-7.064;2023-04-15T06:28:26;99004.91;;;12.46;94.41
60240;BME280;46102;39.012;-7.064;2023-04-15T06:30:27;99009.63;;;12.45;94.73
60240;BME280;46102;39.012;-7.064;2023-04-15T06:32:28;99016.56;;;12.43;94.96
60240;BME280;46102;39.012;-7.064;2023-04-15T06:34:29;99019.00;;;12.44;94.67
60240;BME280;46102;39.012;-7.064;2023-04-15T06:36:30;99018.53;;;12.51;94.23
60240;BME280;46102;39.012;-7.064;2023-04-15T06:38:31;99021.59;;;12.49;94.29
60240;BME280;46102;39.012;-7.064;2023-04-15T06:40:32;99030.53;;;12.55;94.34
60240;BME280;46102;39.012;-7.064;2023-04-15T06:42:34;99035.25;;;12.63;93.81
60240;BME280;46102;39.012;-7.064;2023-04-15T06:44:35;99030.09;;;12.70;93.79
60240;BME280;46102;39.012;-7.064;2023-04-15T06:46:36;99030.94;;;12.80;93.25
60240;BME280;46102;39.012;-7.064;2023-04-15T06:48:37;99033.69;;;12.88;92.48
60240;BME280;46102;39.012;-7.064;2023-04-15T06:50:38;99022.38;;;12.99;92.07
60240;BME280;46102;39.012;-7.064;2023-04-15T06:52:39;99025.94;;;13.08;91.67
60240;BME280;46102;39.012;-7.064;2023-04-15T06:54:40;99026.78;;;13.17;90.94
60240;BME280;46102;39.012;-7.064;2023-04-15T06:56:41;99028.72;;;13.25;90.99
60240;BME280;46102;39.012;-7.064;2023-04-15T06:58:42;99029.56;;;13.35;90.20
60240;BME280;46102;39.012;-7.064;2023-04-15T07:00:43;99036.06;;;13.47;89.83
60240;BME280;46102;39.012;-7.064;2023-04-15T07:02:44;99032.31;;;13.61;89.23
60240;BME280;46102;39.012;-7.064;2023-04-15T07:04:46;99031.00;;;13.75;88.27
60240;BME280;46102;39.012;-7.064;2023-04-15T07:06:47;99026.44;;;13.88;87.03
60240;BME280;46102;39.012;-7.064;2023-04-15T07:08:48;99036.47;;;14.02;86.75
60240;BME280;46102;39.012;-7.064;2023-04-15T07:10:49;99036.75;;;14.18;85.61
60240;BME280;46102;39.012;-7.064;2023-04-15T07:12:49;99039.47;;;14.35;84.95
60240;BME280;46102;39.012;-7.064;2023-04-15T07:14:50;99041.78;;;14.63;82.84
60240;BME280;46102;39.012;-7.064;2023-04-15T07:16:51;99043.38;;;14.72;81.78
60240;BME280;46102;39.012;-7.064;2023-04-15T07:18:52;99046.38;;;14.88;81.04
60240;BME280;46102;39.012;-7.064;2023-04-15T07:20:53;99046.13;;;15.02;79.75
60240;BME280;46102;39.012;-7.064;2023-04-15T07:22:54;99054.50;;;15.14;78.71
60240;BME280;46102;39.012;-7.064;2023-04-15T07:24:54;99043.97;;;15.29;78.17
60240;BME280;46102;39.012;-7.064;2023-04-15T07:26:55;99045.69;;;15.42;77.24
60240;BME280;46102;39.012;-7.064;2023-04-15T07:28:57;99046.81;;;15.62;76.47
60240;BME280;46102;39.012;-7.064;2023-04-15T07:30:58;99052.09;;;15.76;75.37
60240;BME280;46102;39.012;-7.064;2023-04-15T07:32:59;99052.94;;;15.89;74.38
60240;BME280;46102;39.012;-7.064;2023-04-15T07:35:00;99053.44;;;16.03;72.33
60240;BME280;46102;39.012;-7.064;2023-04-15T07:37:03;99050.81;;;16.07;72.33
60240;BME280;46102;39.012;-7.064;2023-04-15T07:39:03;99047.50;;;16.13;72.07
60240;BME280;46102;39.012;-7.064;2023-04-15T07:41:05;99049.47;;;16.25;71.72
60240;BME280;46102;39.012;-7.064;2023-04-15T07:43:06;99048.34;;;16.38;70.82
60240;BME280;46102;39.012;-7.064;2023-04-15T07:45:07;99046.75;;;16.50;69.60
60240;BME280;46102;39.012;-7.064;2023-04-15T07:47:08;99039.94;;;16.59;68.77
60240;BME280;46102;39.012;-7.064;2023-04-15T07:49:10;99044.81;;;16.62;68.83
60240;BME280;46102;39.012;-7.064;2023-04-15T07:51:10;99035.69;;;16.74;68.51
60240;BME280;46102;39.012;-7.064;2023-04-15T07:53:12;99034.88;;;16.86;68.10
60240;BME280;46102;39.012;-7.064;2023-04-15T07:55:13;99034.91;;;16.98;67.63
60240;BME280;46102;39.012;-7.064;2023-04-15T07:57:14;99037.28;;;17.12;66.82
60240;BME280;46102;39.012;-7.064;2023-04-15T07:59:16;99037.34;;;17.40;65.69
60240;BME280;46102;39.012;-7.064;2023-04-15T08:01:17;99037.78;;;17.55;64.87
60240;BME280;46102;39.012;-7.064;2023-04-15T08:03:18;99033.59;;;17.61;63.13
60240;BME280;46102;39.012;-7.064;2023-04-15T08:05:19;99033.69;;;17.64;63.43
60240;BME280;46102;39.012;-7.064;2023-04-15T08:07:19;99037.22;;;17.77;63.00
60240;BME280;46102;39.012;-7.064;2023-04-15T08:09:20;99035.78;;;17.96;62.44
60240;BME280;46102;39.012;-7.064;2023-04-15T08:11:21;99044.25;;;18.15;61.36
60240;BME280;46102;39.012;-7.064;2023-04-15T08:13:24;99034.28;;;18.30;60.78
60240;BME280;46102;39.012;-7.064;2023-04-15T08:15:25;99032.53;;;18.54;59.63
60240;BME280;46102;39.012;-7.064;2023-04-15T08:17:27;99039.78;;;18.58;59.85
60240;BME280;46102;39.012;-7.064;2023-04-15T08:19:28;99036.75;;;18.79;59.37
60240;BME280;46102;39.012;-7.064;2023-04-15T08:21:29;99044.72;;;18.97;58.92
60240;BME280;46102;39.012;-7.064;2023-04-15T08:23:30;99035.25;;;19.17;57.56
60240;BME280;46102;39.012;-7.064;2023-04-15T08:25:33;99037.47;;;19.27;57.54
60240;BME280;46102;39.012;-7.064;2023-04-15T08:27:34;99038.00;;;19.52;56.77
60240;BME280;46102;39.012;-7.064;2023-04-15T08:29:34;99029.13;;;19.86;55.95
60240;BME280;46102;39.012;-7.064;2023-04-15T08:31:35;99032.91;;;20.16;51.36
60240;BME280;46102;39.012;-7.064;2023-04-15T08:33:36;99032.81;;;20.32;45.08
60240;BME280;46102;39.012;-7.064;2023-04-15T08:35:37;99021.84;;;20.43;43.88
60240;BME280;46102;39.012;-7.064;2023-04-15T08:37:38;99028.91;;;20.60;40.13
60240;BME280;46102;39.012;-7.064;2023-04-15T08:39:39;99019.81;;;20.63;37.49
60240;BME280;46102;39.012;-7.064;2023-04-15T08:41:45;99019.56;;;20.72;35.95
60240;BME280;46102;39.012;-7.064;2023-04-15T08:44:02;99021.59;;;20.75;35.77
60240;BME280;46102;39.012;-7.064;2023-04-15T08:46:03;99020.59;;;20.87;33.61
60240;BME280;46102;39.012;-7.064;2023-04-15T08:48:05;99019.16;;;20.96;33.95
60240;BME280;46102;39.012;-7.064;2023-04-15T08:50:08;99027.72;;;21.11;33.16
60240;BME280;46102;39.012;-7.064;2023-04-15T08:52:10;99019.53;;;21.25;32.32
60240;BME280;46102;39.012;-7.064;2023-04-15T08:54:12;99020.91;;;21.35;31.50
60240;BME280;46102;39.012;-7.064;2023-04-15T08:56:13;99024.97;;;21.41;31.96
60240;BME280;46102;39.012;-7.064;2023-04-15T08:58:15;99025.81;;;21.45;30.77
60240;BME280;46102;39.012;-7.064;2023-04-15T09:00:16;99028.69;;;21.52;30.54
60240;BME280;46102;39.012;-7.064;2023-04-15T09:02:17;99032.13;;;21.69;30.38
60240;BME280;46102;39.012;-7.064;2023-04-15T09:04:18;99031.91;;;21.85;30.08
60240;BME280;46102;39.012;-7.064;2023-04-15T09:06:20;99032.56;;;22.08;29.41
60240;BME280;46102;39.012;-7.064;2023-04-15T09:08:21;99031.13;;;22.21;28.89
60240;BME280;46102;39.012;-7.064;2023-04-15T09:10:24;99031.22;;;22.32;28.42
60240;BME280;46102;39.012;-7.064;2023-04-15T09:12:24;99037.84;;;22.54;28.66
60240;BME280;46102;39.012;-7.064;2023-04-15T09:14:27;99036.69;;;22.62;28.12
60240;BME280;46102;39.012;-7.064;2023-04-15T09:16:51;99031.59;;;22.75;27.46
60240;BME280;46102;39.012;-7.064;2023-04-15T09:18:52;99037.63;;;22.77;27.25
60240;BME280;46102;39.012;-7.064;2023-04-15T09:20:53;99030.06;;;22.81;27.50
60240;BME280;46102;39.012;-7.064;2023-04-15T09:22:54;99036.50;;;22.89;27.27
60240;BME280;46102;39.012;-7.064;2023-04-15T09:24:55;99031.06;;;23.03;27.21
60240;BME280;46102;39.012;-7.064;2023-04-15T09:26:57;99022.72;;;23.14;26.40
60240;BME280;46102;39.012;-7.064;2023-04-15T09:29:04;99027.88;;;23.12;26.71
60240;BME280;46102;39.012;-7.064;2023-04-15T09:31:06;99030.72;;;23.16;26.92
60240;BME280;46102;39.012;-7.064;2023-04-15T09:33:07;99034.72;;;23.15;26.65
60240;BME280;46102;39.012;-7.064;2023-04-15T09:35:10;99033.19;;;23.24;27.22
60240;BME280;46102;39.012;-7.064;2023-04-15T09:37:12;99033.66;;;23.37;27.04
60240;BME280;46102;39.012;-7.064;2023-04-15T09:39:15;99030.50;;;23.49;27.37
60240;BME280;46102;39.012;-7.064;2023-04-15T09:41:16;99031.41;;;23.72;26.85
60240;BME280;46102;39.012;-7.064;2023-04-15T09:43:20;99033.91;;;23.87;26.55
60240;BME280;46102;39.012;-7.064;2023-04-15T09:45:22;99040.75;;;24.08;26.19
60240;BME280;46102;39.012;-7.064;2023-04-15T09:47:27;99031.56;;;24.07;26.73
60240;BME280;46102;39.012;-7.064;2023-04-15T09:49:28;99033.19;;;24.26;26.24
60240;BME280;46102;39.012;-7.064;2023-04-15T09:51:34;99032.41;;;24.44;26.11
60240;BME280;46102;39.012;-7.064;2023-04-15T09:53:35;99030.44;;;24.62;26.02
60240;BME280;46102;39.012;-7.064;2023-04-15T09:55:37;99040.06;;;24.76;26.00
60240;BME280;46102;39.012;-7.064;2023-04-15T09:57:39;99040.44;;;24.81;25.68
60240;BME280;46102;39.012;-7.064;2023-04-15T09:59:44;99035.63;;;24.96;25.81
60240;BME280;46102;39.012;-7.064;2023-04-15T10:01:45;99036.41;;;25.04;25.20
60240;BME280;46102;39.012;-7.064;2023-04-15T10:03:46;99033.22;;;25.05;25.64
60240;BME280;46102;39.012;-7.064;2023-04-15T10:05:49;99041.66;;;25.09;25.44
60240;BME280;46102;39.012;-7.064;2023-04-15T10:07:50;99039.22;;;25.22;25.70
60240;BME280;46102;39.012;-7.064;2023-04-15T10:09:54;99031.59;;;25.40;24.79
60240;BME280;46102;39.012;-7.064;2023-04-15T10:11:55;99030.72;;;25.54;23.78
60240;BME280;46102;39.012;-7.064;2023-04-15T10:13:56;99041.16;;;25.53;24.50
60240;BME280;46102;39.012;-7.064;2023-04-15T10:16:00;99031.84;;;25.71;24.24
60240;BME280;46102;39.012;-7.064;2023-04-15T10:18:04;99041.84;;;25.83;23.71
60240;BME280;46102;39.012;-7.064;2023-04-15T10:20:07;99022.50;;;26.03;23.23
60240;BME280;46102;39.012;-7.064;2023-04-15T10:22:09;99026.78;;;26.25;23.06
60240;BME280;46102;39.012;-7.064;2023-04-15T10:24:10;99027.13;;;26.34;23.04
60240;BME280;46102;39.012;-7.064;2023-04-15T10:26:12;99025.47;;;26.41;22.80
60240;BME280;46102;39.012;-7.064;2023-04-15T10:28:15;99031.81;;;26.52;22.61
60240;BME280;46102;39.012;-7.064;2023-04-15T10:30:17;99016.09;;;26.62;21.63
60240;BME280;46102;39.012;-7.064;2023-04-15T10:32:19;99020.44;;;26.70;21.66
60240;BME280;46102;39.012;-7.064;2023-04-15T10:34:23;99013.88;;;26.84;21.58
60240;BME280;46102;39.012;-7.064;2023-04-15T10:36:24;99017.31;;;27.06;21.74
60240;BME280;46102;39.012;-7.064;2023-04-15T10:38:42;99002.66;;;27.25;20.90